sensor_id;sensor_type;location;lat;lon;timestamp;pressure;altitude;pressure_sealevel;temperature;humidity
1726;BME280;41776;48.260;8.928;2023-07-31T00:00:43;52087.94;;;-145.69;72.54
1726;BME280;41776;48.260;8.928;2023-07-31T00:03:11;52139.41;;;-145.69;72.41
1726;BME280;41776;48.260;8.928;2023-07-31T00:05:39;52097.84;;;-145.69;72.95
1726;BME280;41776;48.260;8.928;2023-07-31T00:08:06;52137.44;;;-145.69;73.11
1726;BME280;41776;48.260;8.928;2023-07-31T00:10:34;52109.72;;;-145.69;73.18
1726;BME280;41776;48.260;8.928;2023-07-31T00:13:02;52095.84;;;-145.69;72.98
1726;BME280;41776;48.260;8.928;2023-07-31T00:15:29;52111.69;;;-145.69;73.23
1726;BME280;41776;48.260;8.928;2023-07-31T00:17:57;52103.78;;;-145.69;72.94
1726;BME280;41776;48.260;8.928;2023-07-31T00:20:24;52119.63;;;-145.69;72.84
1726;BME280;41776;48.260;8.928;2023-07-31T00:22:52;52127.53;;;-145.69;73.31
1726;BME280;41776;48.260;8.928;2023-07-31T00:25:18;52123.56;;;-145.69;75.51
1726;BME280;41776;48.260;8.928;2023-07-31T00:27:47;52143.38;;;-145.69;76.75
1726;BME280;41776;48.260;8.928;2023-07-31T00:30:14;52151.28;;;-145.69;77.13
1726;BME280;41776;48.260;8.928;2023-07-31T00:32:43;52099.81;;;-145.69;77.97
1726;BME280;41776;48.260;8.928;2023-07-31T00:35:11;52131.50;;;-145.69;77.58
1726;BME280;41776;48.260;8.928;2023-07-31T00:37:38;52147.34;;;-145.69;78.13
1726;BME280;41776;48.260;8.928;2023-07-31T00:40:07;52115.66;;;-145.69;78.20
1726;BME280;41776;48.260;8.928;2023-07-31T00:42:37;52121.59;;;-145.69;78.40
1726;BME280;41776;48.260;8.928;2023-07-31T00:45:05;52127.53;;;-145.69;78.34
1726;BME280;41776;48.260;8.928;2023-07-31T00:47:31;52143.38;;;-145.69;79.44
1726;BME280;41776;48.260;8.928;2023-07-31T00:49:58;52123.56;;;-145.69;79.13
1726;BME280;41776;48.260;8.928;2023-07-31T00:52:24;52137.44;;;-145.69;80.32
1726;BME280;41776;48.260;8.928;2023-07-31T00:54:51;52107.72;;;-145.69;79.88
1726;BME280;41776;48.260;8.928;2023-07-31T00:57:21;52127.53;;;-145.69;80.59
1726;BME280;41776;48.260;8.928;2023-07-31T00:59:48;52123.56;;;-145.69;80.47
1726;BME280;41776;48.260;8.928;2023-07-31T01:02:14;52151.28;;;-145.69;80.09
1726;BME280;41776;48.260;8.928;2023-07-31T01:04:43;52163.19;;;-145.69;80.16
1726;BME280;41776;48.260;8.928;2023-07-31T01:07:13;52125.56;;;-145.69;80.36
1726;BME280;41776;48.260;8.928;2023-07-31T01:09:43;52095.84;;;-145.69;80.03
1726;BME280;41776;48.260;8.928;2023-07-31T01:12:14;52147.34;;;-145.69;80.21
1726;BME280;41776;48.260;8.928;2023-07-31T01:14:50;52131.50;;;-145.69;79.75
1726;BME280;41776;48.260;8.928;2023-07-31T01:17:17;52123.56;;;-145.69;80.32
1726;BME280;41776;48.260;8.928;2023-07-31T01:19:44;52131.50;;;-145.69;79.77
1726;BME280;41776;48.260;8.928;2023-07-31T01:22:38;52123.56;;;-145.69;78.36
1726;BME280;41776;48.260;8.928;2023-07-31T01:25:18;52143.38;;;-145.69;79.54
1726;BME280;41776;48.260;8.928;2023-07-31T01:27:53;52131.50;;;-145.69;78.61
1726;BME280;41776;48.260;8.928;2023-07-31T01:30:23;52121.59;;;-145.69;79.97
1726;BME280;41776;48.260;8.928;2023-07-31T01:32:52;52139.41;;;-145.69;80.47
1726;BME280;41776;48.260;8.928;2023-07-31T01:35:21;52135.47;;;-145.69;82.00
1726;BME280;41776;48.260;8.928;2023-07-31T01:37:47;52155.25;;;-145.69;82.92
1726;BME280;41776;48.260;8.928;2023-07-31T01:40:14;52147.34;;;-145.69;83.36
1726;BME280;41776;48.260;8.928;2023-07-31T01:42:40;52133.47;;;-145.69;83.60
1726;BME280;41776;48.260;8.928;2023-07-31T01:45:09;52121.59;;;-145.69;83.72
1726;BME280;41776;48.260;8.928;2023-07-31T01:47:36;52137.44;;;-145.69;83.80
1726;BME280;41776;48.260;8.928;2023-07-31T01:50:03;52133.47;;;-145.69;83.62
1726;BME280;41776;48.260;8.928;2023-07-31T01:52:29;52169.13;;;-145.69;82.68
1726;BME280;41776;48.260;8.928;2023-07-31T01:54:57;52179.03;;;-145.69;82.58
1726;BME280;41776;48.260;8.928;2023-07-31T01:57:27;52139.41;;;-145.69;83.16
1726;BME280;41776;48.260;8.928;2023-07-31T01:59:54;52135.47;;;-145.69;83.68
1726;BME280;41776;48.260;8.928;2023-07-31T02:02:22;52151.28;;;-145.69;83.58
1726;BME280;41776;48.260;8.928;2023-07-31T02:04:51;52161.19;;;-145.69;83.14
1726;BME280;41776;48.260;8.928;2023-07-31T02:07:19;52159.22;;;-145.69;82.28
1726;BME280;41776;48.260;8.928;2023-07-31T02:09:48;52131.50;;;-145.69;83.09
1726;BME280;41776;48.260;8.928;2023-07-31T02:12:15;52149.31;;;-145.69;83.46
1726;BME280;41776;48.260;8.928;2023-07-31T02:14:42;52139.41;;;-145.69;83.80
1726;BME280;41776;48.260;8.928;2023-07-31T02:17:10;52123.56;;;-145.69;82.70
1726;BME280;41776;48.260;8.928;2023-07-31T02:19:38;52103.78;;;-145.69;79.92
1726;BME280;41776;48.260;8.928;2023-07-31T02:22:04;52119.63;;;-145.69;79.75
1726;BME280;41776;48.260;8.928;2023-07-31T02:24:34;52147.34;;;-145.69;78.97
1726;BME280;41776;48.260;8.928;2023-07-31T02:27:00;52143.38;;;-145.69;79.54
1726;BME280;41776;48.260;8.928;2023-07-31T02:29:27;52111.69;;;-145.69;79.21
1726;BME280;41776;48.260;8.928;2023-07-31T02:31:53;52109.72;;;-145.69;79.16
1726;BME280;41776;48.260;8.928;2023-07-31T02:34:23;52137.44;;;-145.69;79.20
1726;BME280;41776;48.260;8.928;2023-07-31T02:36:50;52139.41;;;-145.69;79.85
1726;BME280;41776;48.260;8.928;2023-07-31T02:39:19;52119.63;;;-145.69;79.41
1726;BME280;41776;48.260;8.928;2023-07-31T02:41:46;52159.22;;;-145.69;79.99
1726;BME280;41776;48.260;8.928;2023-07-31T02:44:15;52147.34;;;-145.69;79.74
1726;BME280;41776;48.260;8.928;2023-07-31T02:46:44;52151.28;;;-145.69;81.45
1726;BME280;41776;48.260;8.928;2023-07-31T02:49:10;52137.44;;;-145.69;79.61
1726;BME280;41776;48.260;8.928;2023-07-31T02:51:39;52127.53;;;-145.69;80.08
1726;BME280;41776;48.260;8.928;2023-07-31T02:54:07;52149.31;;;-145.69;79.87
1726;BME280;41776;48.260;8.928;2023-07-31T02:56:34;52151.28;;;-145.69;80.32
1726;BME280;41776;48.260;8.928;2023-07-31T02:59:00;52145.34;;;-145.69;80.77
1726;BME280;41776;48.260;8.928;2023-07-31T03:01:29;52143.38;;;-145.69;81.59
1726;BME280;41776;48.260;8.928;2023-07-31T03:03:57;52143.38;;;-145.69;82.12
1726;BME280;41776;48.260;8.928;2023-07-31T03:06:23;52101.78;;;-145.69;82.59
1726;BME280;41776;48.260;8.928;2023-07-31T03:08:51;52153.28;;;-145.69;80.42
1726;BME280;41776;48.260;8.928;2023-07-31T03:11:19;52121.59;;;-145.69;80.64
1726;BME280;41776;48.260;8.928;2023-07-31T03:13:45;52143.38;;;-145.69;79.62
1726;BME280;41776;48.260;8.928;2023-07-31T03:16:12;52115.66;;;-145.69;80.36
1726;BME280;41776;48.260;8.928;2023-07-31T03:18:38;52127.53;;;-145.69;79.73
1726;BME280;41776;48.260;8.928;2023-07-31T03:21:06;52143.38;;;-145.69;80.33
1726;BME280;41776;48.260;8.928;2023-07-31T03:23:33;52129.50;;;-145.69;79.49
1726;BME280;41776;48.260;8.928;2023-07-31T03:26:01;52111.69;;;-145.69;79.47
1726;BME280;41776;48.260;8.928;2023-07-31T03:28:29;52139.41;;;-145.69;80.26
1726;BME280;41776;48.260;8.928;2023-07-31T03:30:56;52139.41;;;-145.69;80.21
1726;BME280;41776;48.260;8.928;2023-07-31T03:33:22;52149.31;;;-145.69;80.02
1726;BME280;41776;48.260;8.928;2023-07-31T03:35:49;52111.69;;;-145.69;80.68
1726;BME280;41776;48.260;8.928;2023-07-31T03:38:16;52135.47;;;-145.69;80.21
1726;BME280;41776;48.260;8.928;2023-07-31T03:40:42;52131.50;;;-145.69;80.78
1726;BME280;41776;48.260;8.928;2023-07-31T03:43:09;52143.38;;;-145.69;80.14
1726;BME280;41776;48.260;8.928;2023-07-31T03:45:37;52139.41;;;-145.69;79.48
1726;BME280;41776;48.260;8.928;2023-07-31T03:48:04;52135.47;;;-145.69;79.40
1726;BME280;41776;48.260;8.928;2023-07-31T03:50:33;52135.47;;;-145.69;79.50
1726;BME280;41776;48.260;8.928;2023-07-31T03:52:59;52139.41;;;-145.69;79.71
1726;BME280;41776;48.260;8.928;2023-07-31T03:55:26;52133.47;;;-145.69;79.65
1726;BME280;41776;48.260;8.928;2023-07-31T03:57:52;52153.28;;;-145.69;79.99
1726;BME280;41776;48.260;8.928;2023-07-31T04:00:19;52145.34;;;-145.69;79.26
1726;BME280;41776;48.260;8.928;2023-07-31T04:02:48;52139.41;;;-145.69;80.17
1726;BME280;41776;48.260;8.928;2023-07-31T04:05:14;52123.56;;;-145.69;79.98
1726;BME280;41776;48.260;8.928;2023-07-31T04:07:45;52113.66;;;-145.69;79.90
1726;BME280;41776;48.260;8.928;2023-07-31T04:10:11;52135.47;;;-145.69;79.75
1726;BME280;41776;48.260;8.928;2023-07-31T04:12:38;52117.63;;;-145.69;79.56
1726;BME280;41776;48.260;8.928;2023-07-31T04:15:05;52155.25;;;-145.69;79.61
1726;BME280;41776;48.260;8.928;2023-07-31T04:17:35;52127.53;;;-145.69;79.71
1726;BME280;41776;48.260;8.928;2023-07-31T04:20:03;52115.66;;;-145.69;79.38
1726;BME280;41776;48.260;8.928;2023-07-31T04:22:33;52147.34;;;-145.69;79.12
1726;BME280;41776;48.260;8.928;2023-07-31T04:25:00;52133.47;;;-145.69;79.58
1726;BME280;41776;48.260;8.928;2023-07-31T04:27:28;52139.41;;;-145.69;79.81
1726;BME280;41776;48.260;8.928;2023-07-31T04:29:58;52068.13;;;-145.69;79.12
1726;BME280;41776;48.260;8.928;2023-07-31T04:32:24;52143.38;;;-145.69;79.64
1726;BME280;41776;48.260;8.928;2023-07-31T04:34:51;52127.53;;;-145.69;78.80
1726;BME280;41776;48.260;8.928;2023-07-31T04:37:19;52125.56;;;-145.69;78.85
1726;BME280;41776;48.260;8.928;2023-07-31T04:39:45;52099.81;;;-145.69;78.63
1726;BME280;41776;48.260;8.928;2023-07-31T04:42:12;52139.41;;;-145.69;79.13
1726;BME280;41776;48.260;8.928;2023-07-31T04:44:38;52113.66;;;-145.69;78.50
1726;BME280;41776;48.260;8.928;2023-07-31T04:47:05;52135.47;;;-145.69;78.28
1726;BME280;41776;48.260;8.928;2023-07-31T04:49:35;52105.75;;;-145.69;78.21
1726;BME280;41776;48.260;8.928;2023-07-31T04:52:04;52111.69;;;-145.69;78.71
1726;BME280;41776;48.260;8.928;2023-07-31T04:54:32;52107.72;;;-145.69;77.75
1726;BME280;41776;48.260;8.928;2023-07-31T04:56:58;52115.66;;;-145.69;77.56
1726;BME280;41776;48.260;8.928;2023-07-31T04:59:25;52111.69;;;-145.69;77.02
1726;BME280;41776;48.260;8.928;2023-07-31T05:01:53;52087.94;;;-145.69;76.66
1726;BME280;41776;48.260;8.928;2023-07-31T05:04:22;52109.72;;;-145.69;76.23
1726;BME280;41776;48.260;8.928;2023-07-31T05:06:48;52103.78;;;-145.69;76.12
1726;BME280;41776;48.260;8.928;2023-07-31T05:09:15;52107.72;;;-145.69;75.71
1726;BME280;41776;48.260;8.928;2023-07-31T05:11:43;52127.53;;;-145.69;75.68
1726;BME280;41776;48.260;8.928;2023-07-31T05:14:13;52095.84;;;-145.69;75.20
1726;BME280;41776;48.260;8.928;2023-07-31T05:16:40;52076.03;;;-145.69;75.08
1726;BME280;41776;48.260;8.928;2023-07-31T05:19:07;52113.66;;;-145.69;75.08
1726;BME280;41776;48.260;8.928;2023-07-31T05:21:34;52099.81;;;-145.69;74.86
1726;BME280;41776;48.260;8.928;2023-07-31T05:24:02;52082.00;;;-145.69;74.20
1726;BME280;41776;48.260;8.928;2023-07-31T05:26:29;52076.03;;;-145.69;73.63
1726;BME280;41776;48.260;8.928;2023-07-31T05:28:57;52068.13;;;-145.69;72.71
1726;BME280;41776;48.260;8.928;2023-07-31T05:31:24;52080.00;;;-145.69;72.40
1726;BME280;41776;48.260;8.928;2023-07-31T05:33:51;52099.81;;;-145.69;72.29
1726;BME280;41776;48.260;8.928;2023-07-31T05:36:17;52040.41;;;-145.69;72.12
1726;BME280;41776;48.260;8.928;2023-07-31T05:38:46;52078.03;;;-145.69;72.19
1726;BME280;41776;48.260;8.928;2023-07-31T05:41:13;52044.38;;;-145.69;71.92
1726;BME280;41776;48.260;8.928;2023-07-31T05:43:42;52068.13;;;-145.69;71.17
1726;BME280;41776;48.260;8.928;2023-07-31T05:46:10;52072.09;;;-145.69;71.04
1726;BME280;41776;48.260;8.928;2023-07-31T05:48:40;52074.06;;;-145.69;70.17
1726;BME280;41776;48.260;8.928;2023-07-31T05:51:07;52064.16;;;-145.69;69.01
1726;BME280;41776;48.260;8.928;2023-07-31T05:53:33;52050.31;;;-145.69;68.32
1726;BME280;41776;48.260;8.928;2023-07-31T05:56:01;52062.19;;;-145.69;67.03
1726;BME280;41776;48.260;8.928;2023-07-31T05:58:27;52060.22;;;-145.69;64.01
1726;BME280;41776;48.260;8.928;2023-07-31T06:00:56;52046.34;;;-145.69;63.08
1726;BME280;41776;48.260;8.928;2023-07-31T06:03:24;52024.56;;;-145.69;61.89
1726;BME280;41776;48.260;8.928;2023-07-31T06:05:50;52028.53;;;-145.69;61.15
1726;BME280;41776;48.260;8.928;2023-07-31T06:08:19;52016.66;;;-145.69;59.19
1726;BME280;41776;48.260;8.928;2023-07-31T06:10:46;52014.66;;;-145.69;55.88
1726;BME280;41776;48.260;8.928;2023-07-31T06:13:12;51986.94;;;-145.69;57.65
1726;BME280;41776;48.260;8.928;2023-07-31T06:15:39;52024.56;;;-145.69;52.93
1726;BME280;41776;48.260;8.928;2023-07-31T06:18:08;52022.59;;;-145.69;53.53
1726;BME280;41776;48.260;8.928;2023-07-31T06:20:37;52000.81;;;-145.69;50.37
1726;BME280;41776;48.260;8.928;2023-07-31T06:23:05;52024.56;;;-145.69;49.24
1726;BME280;41776;48.260;8.928;2023-07-31T06:25:32;51990.91;;;-145.69;48.59
1726;BME280;41776;48.260;8.928;2023-07-31T06:27:58;52002.78;;;-145.69;47.45
1726;BME280;41776;48.260;8.928;2023-07-31T06:30:25;51992.88;;;-145.69;45.73
1726;BME280;41776;48.260;8.928;2023-07-31T06:32:51;51988.91;;;-145.69;46.22
1726;BME280;41776;48.260;8.928;2023-07-31T06:35:21;52000.81;;;-145.69;45.24
1726;BME280;41776;48.260;8.928;2023-07-31T06:37:48;51969.13;;;-145.69;45.00
1726;BME280;41776;48.260;8.928;2023-07-31T06:40:16;51994.88;;;-145.69;43.24
1726;BME280;41776;48.260;8.928;2023-07-31T06:42:43;51965.16;;;-145.69;42.77
1726;BME280;41776;48.260;8.928;2023-07-31T06:45:11;51941.41;;;-145.69;42.71
1726;BME280;41776;48.260;8.928;2023-07-31T06:47:37;51957.25;;;-145.69;42.11
1726;BME280;41776;48.260;8.928;2023-07-31T06:50:10;51969.13;;;-145.69;42.03
1726;BME280;41776;48.260;8.928;2023-07-31T06:52:37;51969.13;;;-145.69;42.67
1726;BME280;41776;48.260;8.928;2023-07-31T06:55:21;51961.19;;;-145.69;42.08
1726;BME280;41776;48.260;8.928;2023-07-31T06:57:55;51959.22;;;-145.69;41.81
1726;BME280;41776;48.260;8.928;2023-07-31T07:00:22;51943.38;;;-145.69;42.05
1726;BME280;41776;48.260;8.928;2023-07-31T07:02:49;51913.69;;;-145.69;41.60
1726;BME280;41776;48.260;8.928;2023-07-31T07:05:19;51965.16;;;-145.69;41.09
1726;BME280;41776;48.260;8.928;2023-07-31T07:07:45;51949.31;;;-145.69;41.24
1726;BME280;41776;48.260;8.928;2023-07-31T07:10:13;51919.63;;;-145.69;41.06
1726;BME280;41776;48.260;8.928;2023-07-31T07:12:40;51925.56;;;-145.69;40.60
1726;BME280;41776;48.260;8.928;2023-07-31T07:15:08;51945.34;;;-145.69;39.55
1726;BME280;41776;48.260;8.928;2023-07-31T07:17:35;51937.44;;;-145.69;40.42
1726;BME280;41776;48.260;8.928;2023-07-31T07:20:04;51917.63;;;-145.69;39.39
1726;BME280;41776;48.260;8.928;2023-07-31T07:22:31;51943.38;;;-145.69;39.49
1726;BME280;41776;48.260;8.928;2023-07-31T07:24:57;51899.81;;;-145.69;39.96
1726;BME280;41776;48.260;8.928;2023-07-31T07:27:30;51935.47;;;-145.69;38.58
1726;BME280;41776;48.260;8.928;2023-07-31T07:29:56;51899.81;;;-145.69;39.26
1726;BME280;41776;48.260;8.928;2023-07-31T07:32:23;51939.41;;;-145.69;38.51
1726;BME280;41776;48.260;8.928;2023-07-31T07:34:52;51913.69;;;-145.69;37.87
1726;BME280;41776;48.260;8.928;2023-07-31T07:37:18;51917.63;;;-145.69;39.74
1726;BME280;41776;48.260;8.928;2023-07-31T07:39:44;51937.44;;;-145.69;39.06
1726;BME280;41776;48.260;8.928;2023-07-31T07:42:14;51927.53;;;-145.69;38.20
1726;BME280;41776;48.260;8.928;2023-07-31T07:44:42;51949.31;;;-145.69;38.99
1726;BME280;41776;48.260;8.928;2023-07-31T07:47:08;51917.63;;;-145.69;39.91
1726;BME280;41776;48.260;8.928;2023-07-31T07:49:38;51917.63;;;-145.69;38.76
1726;BME280;41776;48.260;8.928;2023-07-31T07:52:07;51925.56;;;-145.69;39.33
1726;BME280;41776;48.260;8.928;2023-07-31T07:54:33;51945.34;;;-145.69;38.50
1726;BME280;41776;48.260;8.928;2023-07-31T07:57:00;51925.56;;;-145.69;39.57
1726;BME280;41776;48.260;8.928;2023-07-31T07:59:29;51921.59;;;-145.69;38.97
1726;BME280;41776;48.260;8.928;2023-07-31T08:01:57;51921.59;;;-145.69;38.47
1726;BME280;41776;48.260;8.928;2023-07-31T08:04:31;51933.47;;;-145.69;38.98
1726;BME280;41776;48.260;8.928;2023-07-31T08:06:59;51935.47;;;-145.69;39.36
1726;BME280;41776;48.260;8.928;2023-07-31T08:09:28;51937.44;;;-145.69;39.05
1726;BME280;41776;48.260;8.928;2023-07-31T08:11:54;51935.47;;;-145.69;39.46
1726;BME280;41776;48.260;8.928;2023-07-31T08:14:23;51953.28;;;-145.69;40.22
1726;BME280;41776;48.260;8.928;2023-07-31T08:16:49;51913.69;;;-145.69;40.77
1726;BME280;41776;48.260;8.928;2023-07-31T08:19:17;51949.31;;;-145.69;40.26
1726;BME280;41776;48.260;8.928;2023-07-31T08:21:43;51937.44;;;-145.69;40.06
1726;BME280;41776;48.260;8.928;2023-07-31T08:24:10;51929.50;;;-145.69;40.42
1726;BME280;41776;48.260;8.928;2023-07-31T08:26:36;51929.50;;;-145.69;40.02
1726;BME280;41776;48.260;8.928;2023-07-31T08:29:03;51939.41;;;-145.69;41.25
1726;BME280;41776;48.260;8.928;2023-07-31T08:31:29;51945.34;;;-145.69;42.28
1726;BME280;41776;48.260;8.928;2023-07-31T08:33:59;51905.75;;;-145.69;38.81
1726;BME280;41776;48.260;8.928;2023-07-31T08:36:27;51923.56;;;-145.69;40.34
1726;BME280;41776;48.260;8.928;2023-07-31T08:38:59;51913.69;;;-145.69;38.72
1726;BME280;41776;48.260;8.928;2023-07-31T08:41:25;51909.72;;;-145.69;39.91
1726;BME280;41776;48.260;8.928;2023-07-31T08:43:54;51905.75;;;-145.69;39.14
1726;BME280;41776;48.260;8.928;2023-07-31T08:46:25;51919.63;;;-145.69;38.21
1726;BME280;41776;48.260;8.928;2023-07-31T08:48:51;51909.72;;;-145.69;39.29
1726;BME280;41776;48.260;8.928;2023-07-31T08:51:19;51901.78;;;-145.69;39.67
1726;BME280;41776;48.260;8.928;2023-07-31T08:53:47;51935.47;;;-145.69;39.32
1726;BME280;41776;48.260;8.928;2023-07-31T08:56:14;51941.41;;;-145.69;39.79
1726;BME280;41776;48.260;8.928;2023-07-31T08:58:46;51945.34;;;-145.69;40.75
1726;BME280;41776;48.260;8.928;2023-07-31T09:01:14;51945.34;;;-145.69;41.44
1726;BME280;41776;48.260;8.928;2023-07-31T09:03:41;51935.47;;;-145.69;40.78
1726;BME280;41776;48.260;8.928;2023-07-31T09:06:12;51897.84;;;-145.69;40.78
1726;BME280;41776;48.260;8.928;2023-07-31T09:08:40;51921.59;;;-145.69;41.25
1726;BME280;41776;48.260;8.928;2023-07-31T09:11:09;51921.59;;;-145.69;41.80
1726;BME280;41776;48.260;8.928;2023-07-31T09:13:36;51945.34;;;-145.69;41.11
1726;BME280;41776;48.260;8.928;2023-07-31T09:16:05;51949.31;;;-145.69;40.62
1726;BME280;41776;48.260;8.928;2023-07-31T09:18:31;51921.59;;;-145.69;39.57
1726;BME280;41776;48.260;8.928;2023-07-31T09:21:01;51887.94;;;-145.69;40.03
1726;BME280;41776;48.260;8.928;2023-07-31T09:23:40;51925.56;;;-145.69;38.91
1726;BME280;41776;48.260;8.928;2023-07-31T09:26:08;51870.13;;;-145.69;37.98
1726;BME280;41776;48.260;8.928;2023-07-31T09:28:38;51864.16;;;-145.69;37.99
1726;BME280;41776;48.260;8.928;2023-07-31T09:31:04;51870.13;;;-145.69;37.94
1726;BME280;41776;48.260;8.928;2023-07-31T09:33:54;51866.16;;;-145.69;37.85
1726;BME280;41776;48.260;8.928;2023-07-31T09:36:22;51874.06;;;-145.69;37.83
1726;BME280;41776;48.260;8.928;2023-07-31T09:38:49;51911.69;;;-145.69;38.14
1726;BME280;41776;48.260;8.928;2023-07-31T09:41:16;51882.00;;;-145.69;39.33
1726;BME280;41776;48.260;8.928;2023-07-31T09:43:53;51848.34;;;-145.69;37.58
1726;BME280;41776;48.260;8.928;2023-07-31T09:46:22;51830.50;;;-145.69;36.68
1726;BME280;41776;48.260;8.928;2023-07-31T09:48:50;51846.34;;;-145.69;36.10
1726;BME280;41776;48.260;8.928;2023-07-31T09:51:17;51860.22;;;-145.69;36.54
1726;BME280;41776;48.260;8.928;2023-07-31T09:53:52;51880.00;;;-145.69;36.37
1726;BME280;41776;48.260;8.928;2023-07-31T09:56:21;51868.13;;;-145.69;36.71
1726;BME280;41776;48.260;8.928;2023-07-31T09:58:49;51862.19;;;-145.69;37.19
1726;BME280;41776;48.260;8.928;2023-07-31T10:01:16;51870.13;;;-145.69;36.96
1726;BME280;41776;48.260;8.928;2023-07-31T10:03:45;51893.88;;;-145.69;37.49
1726;BME280;41776;48.260;8.928;2023-07-31T10:06:12;51897.84;;;-145.69;38.06
1726;BME280;41776;48.260;8.928;2023-07-31T10:08:42;51868.13;;;-145.69;39.25
1726;BME280;41776;48.260;8.928;2023-07-31T10:11:13;51897.84;;;-145.69;38.84
1726;BME280;41776;48.260;8.928;2023-07-31T10:13:44;51897.84;;;-145.69;39.20
1726;BME280;41776;48.260;8.928;2023-07-31T10:16:22;51897.84;;;-145.69;38.58
1726;BME280;41776;48.260;8.928;2023-07-31T10:18:49;51891.88;;;-145.69;38.69
1726;BME280;41776;48.260;8.928;2023-07-31T10:21:18;51937.44;;;-145.69;39.57
1726;BME280;41776;48.260;8.928;2023-07-31T10:23:45;51909.72;;;-145.69;40.84
1726;BME280;41776;48.260;8.928;2023-07-31T10:26:17;51893.88;;;-145.69;39.49
1726;BME280;41776;48.260;8.928;2023-07-31T10:28:49;51915.66;;;-145.69;39.09
1726;BME280;41776;48.260;8.928;2023-07-31T10:31:17;51901.78;;;-145.69;38.62
1726;BME280;41776;48.260;8.928;2023-07-31T10:33:46;51901.78;;;-145.69;37.99
1726;BME280;41776;48.260;8.928;2023-07-31T10:36:13;51905.75;;;-145.69;37.76
1726;BME280;41776;48.260;8.928;2023-07-31T10:38:41;51915.66;;;-145.69;39.50
1726;BME280;41776;48.260;8.928;2023-07-31T10:41:17;51887.94;;;-145.69;39.04
1726;BME280;41776;48.260;8.928;2023-07-31T10:43:46;51901.78;;;-145.69;37.60
1726;BME280;41776;48.260;8.928;2023-07-31T10:46:14;51925.56;;;-145.69;38.31
1726;BME280;41776;48.260;8.928;2023-07-31T10:48:41;51878.03;;;-145.69;37.61
1726;BME280;41776;48.260;8.928;2023-07-31T10:51:08;51876.06;;;-145.69;38.28
1726;BME280;41776;48.260;8.928;2023-07-31T10:53:38;51891.88;;;-145.69;38.71
1726;BME280;41776;48.260;8.928;2023-07-31T10:56:07;51883.97;;;-145.69;38.05
1726;BME280;41776;48.260;8.928;2023-07-31T10:58:34;51889.91;;;-145.69;38.41
1726;BME280;41776;48.260;8.928;2023-07-31T11:01:06;51897.84;;;-145.69;37.56
1726;BME280;41776;48.260;8.928;2023-07-31T11:03:43;51923.56;;;-145.69;37.60
1726;BME280;41776;48.260;8.928;2023-07-31T11:06:10;51878.03;;;-145.69;37.00
1726;BME280;41776;48.260;8.928;2023-07-31T11:08:51;51885.94;;;-145.69;36.57
1726;BME280;41776;48.260;8.928;2023-07-31T11:11:33;51913.69;;;-145.69;36.64
1726;BME280;41776;48.260;8.928;2023-07-31T11:14:10;51885.94;;;-145.69;37.58
1726;BME280;41776;48.260;8.928;2023-07-31T11:16:41;51913.69;;;-145.69;35.96
1726;BME280;41776;48.260;8.928;2023-07-31T11:19:08;51854.28;;;-145.69;36.52
1726;BME280;41776;48.260;8.928;2023-07-31T11:21:35;51895.84;;;-145.69;36.24
1726;BME280;41776;48.260;8.928;2023-07-31T11:24:04;51850.31;;;-145.69;35.73
1726;BME280;41776;48.260;8.928;2023-07-31T11:26:30;51864.16;;;-145.69;35.26
1726;BME280;41776;48.260;8.928;2023-07-31T11:29:00;51846.34;;;-145.69;34.65
1726;BME280;41776;48.260;8.928;2023-07-31T11:31:26;51810.72;;;-145.69;34.91
1726;BME280;41776;48.260;8.928;2023-07-31T11:34:05;51802.78;;;-145.69;34.90
1726;BME280;41776;48.260;8.928;2023-07-31T11:36:32;51816.66;;;-145.69;34.18
1726;BME280;41776;48.260;8.928;2023-07-31T11:39:04;51836.44;;;-145.69;33.14
1726;BME280;41776;48.260;8.928;2023-07-31T11:41:31;51818.63;;;-145.69;32.35
1726;BME280;41776;48.260;8.928;2023-07-31T11:43:59;51771.09;;;-145.69;32.86
1726;BME280;41776;48.260;8.928;2023-07-31T11:46:26;51765.16;;;-145.69;32.92
1726;BME280;41776;48.260;8.928;2023-07-31T11:48:59;51769.13;;;-145.69;32.15
1726;BME280;41776;48.260;8.928;2023-07-31T11:51:27;51790.91;;;-145.69;31.78
1726;BME280;41776;48.260;8.928;2023-07-31T11:53:57;51763.19;;;-145.69;31.74
1726;BME280;41776;48.260;8.928;2023-07-31T11:56:26;51779.03;;;-145.69;31.40
1726;BME280;41776;48.260;8.928;2023-07-31T11:58:54;51775.06;;;-145.69;31.71
1726;BME280;41776;48.260;8.928;2023-07-31T12:01:22;51806.75;;;-145.69;31.91
1726;BME280;41776;48.260;8.928;2023-07-31T12:03:50;51802.78;;;-145.69;32.05
1726;BME280;41776;48.260;8.928;2023-07-31T12:06:18;51790.91;;;-145.69;31.58
1726;BME280;41776;48.260;8.928;2023-07-31T12:08:47;51781.00;;;-145.69;31.49
1726;BME280;41776;48.260;8.928;2023-07-31T12:11:14;51808.72;;;-145.69;32.15
1726;BME280;41776;48.260;8.928;2023-07-31T12:13:43;51779.03;;;-145.69;32.94
1726;BME280;41776;48.260;8.928;2023-07-31T12:16:09;51775.06;;;-145.69;33.31
1726;BME280;41776;48.260;8.928;2023-07-31T12:18:37;51779.03;;;-145.69;33.22
1726;BME280;41776;48.260;8.928;2023-07-31T12:21:05;51779.03;;;-145.69;31.64
1726;BME280;41776;48.260;8.928;2023-07-31T12:23:33;51818.63;;;-145.69;30.86
1726;BME280;41776;48.260;8.928;2023-07-31T12:26:02;51757.25;;;-145.69;30.73
1726;BME280;41776;48.260;8.928;2023-07-31T12:28:28;51761.22;;;-145.69;31.43
1726;BME280;41776;48.260;8.928;2023-07-31T12:30:57;51761.22;;;-145.69;30.93
1726;BME280;41776;48.260;8.928;2023-07-31T12:33:23;51757.25;;;-145.69;30.60
1726;BME280;41776;48.260;8.928;2023-07-31T12:35:50;51781.00;;;-145.69;30.86
1726;BME280;41776;48.260;8.928;2023-07-31T12:38:18;51808.72;;;-145.69;30.78
1726;BME280;41776;48.260;8.928;2023-07-31T12:40:44;51775.06;;;-145.69;31.77
1726;BME280;41776;48.260;8.928;2023-07-31T12:43:13;51771.09;;;-145.69;31.70
1726;BME280;41776;48.260;8.928;2023-07-31T12:45:39;51779.03;;;-145.69;32.57
1726;BME280;41776;48.260;8.928;2023-07-31T12:48:06;51783.00;;;-145.69;31.11
1726;BME280;41776;48.260;8.928;2023-07-31T12:50:33;51812.69;;;-145.69;31.13
1726;BME280;41776;48.260;8.928;2023-07-31T12:53:02;51755.25;;;-145.69;32.12
1726;BME280;41776;48.260;8.928;2023-07-31T12:55:29;51763.19;;;-145.69;31.40